Time;durP1;ratioP1;P1;durP2;ratioP2;P2;SDS_P1;SDS_P2;PMS_P1;PMS_P2;Temp;Humidity;BMP_temperature;BMP_pressure;BME280_temperature;BME280_humidity;BME280_pressure;Samples;Min_cycle;Max_cycle;Signal;HPM_P1;HPM_P2
2022/11/25 00:01:31;;;;;;;77.90;12.52;;;;;;;;;;5032079;28;20209;-76
2022/11/25 00:04:00;;;;;;;91.53;14.43;;;;;;;;;;5031746;28;20233;-76
2022/11/25 00:06:28;;;;;;;72.40;12.80;;;;;;;;;;5031769;28;20242;-76
2022/11/25 00:08:56;;;;;;;81.00;14.00;;;;;;;;;;5030762;28;20232;-77
2022/11/25 00:11:24;;;;;;;74.18;12.65;;;;;;;;;;5031903;28;20750;-76
2022/11/25 00:13:51;;;;;;;72.07;13.20;;;;;;;;;;5031765;28;20212;-76
2022/11/25 00:16:19;;;;;;;71.32;12.20;;;;;;;;;;5031789;28;20234;-76
2022/11/25 00:18:46;;;;;;;70.60;11.70;;;;;;;;;;5030840;28;20285;-76
2022/11/25 00:21:16;;;;;;;73.47;12.55;;;;;;;;;;5031590;28;20207;-76
2022/11/25 00:23:44;;;;;;;83.60;12.68;;;;;;;;;;5031687;28;20209;-76
2022/11/25 00:26:12;;;;;;;79.40;11.82;;;;;;;;;;5031736;28;20236;-77
2022/11/25 00:28:40;;;;;;;69.53;10.75;;;;;;;;;;5030799;28;20316;-76
2022/11/25 00:31:07;;;;;;;76.28;13.23;;;;;;;;;;5031543;28;20230;-76
2022/11/25 00:33:35;;;;;;;70.22;11.60;;;;;;;;;;5031386;28;20302;-76
2022/11/25 00:36:02;;;;;;;75.80;12.32;;;;;;;;;;5034082;28;20257;-77
2022/11/25 00:38:31;;;;;;;79.35;13.38;;;;;;;;;;5035170;28;20318;-76
2022/11/25 00:46:23;;;;;;;67.45;10.45;;;;;;;;;;5034983;28;20317;-76
2022/11/25 00:48:51;;;;;;;73.35;11.80;;;;;;;;;;5034292;28;20234;-76
2022/11/25 00:51:18;;;;;;;70.07;10.95;;;;;;;;;;5034874;28;20652;-77
2022/11/25 00:53:46;;;;;;;70.63;11.70;;;;;;;;;;5035167;28;20210;-77
2022/11/25 00:56:14;;;;;;;67.32;11.25;;;;;;;;;;5035013;28;20232;-76
2022/11/25 00:58:41;;;;;;;69.80;12.15;;;;;;;;;;5034186;28;20226;-76
2022/11/25 01:01:08;;;;;;;67.57;13.00;;;;;;;;;;5035012;28;20237;-76
2022/11/25 01:03:36;;;;;;;67.63;11.18;;;;;;;;;;5034995;28;20247;-76
2022/11/25 01:06:03;;;;;;;69.63;10.60;;;;;;;;;;5035004;28;20219;-76
2022/11/25 01:08:30;;;;;;;71.32;11.50;;;;;;;;;;5034290;28;20318;-76
2022/11/25 01:11:00;;;;;;;73.25;11.40;;;;;;;;;;5034444;28;20313;-76
2022/11/25 01:13:27;;;;;;;67.55;10.90;;;;;;;;;;5034580;28;20302;-76
2022/11/25 01:15:54;;;;;;;70.18;11.70;;;;;;;;;;5034601;28;20297;-77
2022/11/25 01:18:22;;;;;;;66.65;10.82;;;;;;;;;;5034292;28;20258;-76
2022/11/25 01:20:49;;;;;;;65.35;10.15;;;;;;;;;;5033830;28;20238;-76
2022/11/25 01:23:16;;;;;;;65.45;9.93;;;;;;;;;;5034649;28;20297;-76
2022/11/25 01:25:43;;;;;;;66.82;10.85;;;;;;;;;;5034495;28;20210;-77
2022/11/25 01:28:12;;;;;;;68.53;10.60;;;;;;;;;;5034320;28;20241;-77
2022/11/25 01:30:39;;;;;;;65.93;9.70;;;;;;;;;;5033774;28;20241;-76
2022/11/25 01:33:07;;;;;;;65.93;10.07;;;;;;;;;;5034523;28;20233;-77
2022/11/25 01:35:37;;;;;;;65.80;10.05;;;;;;;;;;5034409;28;20285;-76
2022/11/25 01:38:04;;;;;;;72.32;10.07;;;;;;;;;;5034157;28;20206;-76
2022/11/25 01:40:31;;;;;;;68.82;10.80;;;;;;;;;;5033972;28;20801;-76
2022/11/25 01:42:58;;;;;;;65.60;10.25;;;;;;;;;;5034172;28;20202;-76
2022/11/25 01:45:37;;;;;;;65.75;9.52;;;;;;;;;;5034117;28;20238;-76
2022/11/25 01:48:09;;;;;;;66.05;9.52;;;;;;;;;;5033076;28;20644;-76
2022/11/25 01:50:37;;;;;;;65.13;9.68;;;;;;;;;;5033281;28;20318;-76
2022/11/25 01:53:07;;;;;;;65.72;10.13;;;;;;;;;;5033834;28;20301;-76
2022/11/25 01:55:37;;;;;;;65.97;9.38;;;;;;;;;;5033916;28;20306;-76
2022/11/25 01:58:06;;;;;;;65.97;10.43;;;;;;;;;;5033613;28;20216;-76
2022/11/25 02:00:33;;;;;;;70.35;10.15;;;;;;;;;;5033181;28;20234;-76
2022/11/25 02:03:02;;;;;;;68.88;10.38;;;;;;;;;;5033956;28;20293;-76
2022/11/25 02:05:33;;;;;;;63.30;8.70;;;;;;;;;;5033673;28;20298;-76
2022/11/25 02:08:00;;;;;;;65.40;9.55;;;;;;;;;;5033785;28;20188;-76
2022/11/25 02:10:29;;;;;;;64.28;8.55;;;;;;;;;;5032805;28;20790;-76
2022/11/25 02:12:56;;;;;;;68.43;10.13;;;;;;;;;;5033530;28;20297;-76
2022/11/25 02:15:24;;;;;;;64.80;9.68;;;;;;;;;;5034027;28;20203;-76
2022/11/25 02:17:51;;;;;;;66.95;9.68;;;;;;;;;;5033477;28;20751;-76
2022/11/25 02:20:20;;;;;;;66.30;8.32;;;;;;;;;;5032412;28;20250;-76
2022/11/25 02:22:53;;;;;;;66.00;9.23;;;;;;;;;;5033603;28;20637;-76
2022/11/25 02:25:23;;;;;;;67.55;8.80;;;;;;;;;;5033411;28;20306;-76
2022/11/25 02:27:52;;;;;;;66.45;9.07;;;;;;;;;;5033426;28;20238;-76
2022/11/25 02:30:19;;;;;;;66.13;8.80;;;;;;;;;;5032259;28;20751;-76
2022/11/25 02:32:47;;;;;;;65.68;10.23;;;;;;;;;;5033143;28;20241;-76
2022/11/25 02:35:25;;;;;;;65.43;8.45;;;;;;;;;;5033315;28;20214;-76
2022/11/25 02:37:52;;;;;;;63.35;8.35;;;;;;;;;;5033249;28;20300;-76
2022/11/25 02:40:20;;;;;;;63.05;7.95;;;;;;;;;;5032250;28;20296;-76
2022/11/25 02:42:50;;;;;;;67.40;8.23;;;;;;;;;;5029051;28;20301;-76
2022/11/25 02:45:18;;;;;;;65.65;9.15;;;;;;;;;;5032822;28;20283;-76
2022/11/25 02:47:45;;;;;;;67.40;8.52;;;;;;;;;;5032817;28;20211;-76
2022/11/25 02:50:13;;;;;;;67.82;9.75;;;;;;;;;;5031981;28;20785;-76
2022/11/25 02:52:40;;;;;;;64.70;9.05;;;;;;;;;;5032774;28;20203;-76
2022/11/25 02:55:08;;;;;;;62.95;7.45;;;;;;;;;;5032731;28;20288;-76
2022/11/25 02:57:35;;;;;;;64.55;8.95;;;;;;;;;;5032701;28;20202;-76
2022/11/25 03:00:04;;;;;;;63.83;8.55;;;;;;;;;;5032058;28;20258;-76
2022/11/25 03:02:31;;;;;;;69.65;9.15;;;;;;;;;;5032690;28;20239;-76
2022/11/25 03:04:58;;;;;;;64.55;8.98;;;;;;;;;;5032595;28;20242;-76
2022/11/25 03:07:25;;;;;;;65.43;8.65;;;;;;;;;;5032432;28;20297;-76
2022/11/25 03:09:52;;;;;;;65.90;9.00;;;;;;;;;;5031941;28;20273;-76
2022/11/25 03:12:20;;;;;;;63.42;9.07;;;;;;;;;;5032710;28;20454;-76
2022/11/25 03:14:47;;;;;;;64.80;9.10;;;;;;;;;;5032323;28;20207;-76
2022/11/25 03:17:15;;;;;;;68.25;8.05;;;;;;;;;;5032382;28;20203;-76
2022/11/25 03:19:42;;;;;;;66.18;9.35;;;;;;;;;;5026386;28;20309;-76
2022/11/25 03:22:10;;;;;;;64.57;8.80;;;;;;;;;;5012976;28;20207;-76
2022/11/25 03:24:37;;;;;;;65.85;8.73;;;;;;;;;;5012937;28;20242;-76
2022/11/25 03:27:04;;;;;;;64.43;9.07;;;;;;;;;;5012423;28;20243;-76
2022/11/25 03:29:31;;;;;;;64.68;8.93;;;;;;;;;;5011614;28;20309;-77
2022/11/25 03:31:59;;;;;;;64.80;9.68;;;;;;;;;;5012374;28;20227;-76
2022/11/25 03:34:27;;;;;;;67.32;10.25;;;;;;;;;;5012284;28;20294;-76
2022/11/25 03:36:54;;;;;;;63.85;9.10;;;;;;;;;;5012583;28;20246;-76
2022/11/25 03:39:22;;;;;;;66.85;9.73;;;;;;;;;;5011476;28;20233;-76
2022/11/25 03:41:49;;;;;;;67.20;10.88;;;;;;;;;;5012225;28;20238;-76
2022/11/25 03:44:16;;;;;;;66.68;8.75;;;;;;;;;;5012187;28;20253;-76
2022/11/25 03:46:44;;;;;;;66.95;10.88;;;;;;;;;;5012417;28;20203;-76
2022/11/25 03:49:11;;;;;;;64.90;9.18;;;;;;;;;;5011208;28;20321;-76
2022/11/25 03:51:39;;;;;;;67.70;10.30;;;;;;;;;;5012253;28;20241;-77
2022/11/25 03:54:06;;;;;;;66.80;9.93;;;;;;;;;;5012273;28;20297;-76
2022/11/25 03:56:34;;;;;;;70.13;11.75;;;;;;;;;;5011968;28;20268;-76
2022/11/25 03:59:01;;;;;;;65.07;10.05;;;;;;;;;;5011306;28;20230;-76
2022/11/25 04:01:28;;;;;;;67.72;10.32;;;;;;;;;;5012082;28;20226;-76
2022/11/25 04:03:55;;;;;;;68.10;9.80;;;;;;;;;;5012179;28;20294;-76
2022/11/25 04:06:22;;;;;;;73.93;10.48;;;;;;;;;;5012113;28;20636;-76
2022/11/25 04:08:51;;;;;;;70.15;10.40;;;;;;;;;;5011180;28;20231;-76
2022/11/25 04:11:18;;;;;;;67.97;9.77;;;;;;;;;;5015310;28;20223;-76
2022/11/25 04:13:44;;;;;;;69.40;9.77;;;;;;;;;;5015916;28;20203;-76
2022/11/25 04:16:19;;;;;;;71.20;9.70;;;;;;;;;;5016070;28;20554;-77
2022/11/25 04:18:46;;;;;;;67.82;10.15;;;;;;;;;;5015336;28;20692;-76
2022/11/25 04:21:13;;;;;;;67.63;10.18;;;;;;;;;;5016058;28;20207;-76
2022/11/25 04:23:40;;;;;;;70.10;10.55;;;;;;;;;;5016044;28;20213;-76
2022/11/25 04:26:09;;;;;;;66.15;9.65;;;;;;;;;;5015886;28;20210;-76
2022/11/25 04:28:36;;;;;;;65.50;9.98;;;;;;;;;;5014778;28;20262;-76
2022/11/25 04:31:06;;;;;;;67.88;9.90;;;;;;;;;;5016099;28;20252;-76
2022/11/25 04:33:33;;;;;;;64.55;9.63;;;;;;;;;;5015820;28;20645;-76
2022/11/25 04:36:00;;;;;;;66.80;9.50;;;;;;;;;;5016078;28;20640;-76
2022/11/25 04:38:27;;;;;;;67.20;9.82;;;;;;;;;;5015476;28;20769;-76
2022/11/25 04:40:55;;;;;;;66.07;9.88;;;;;;;;;;5015146;28;20226;-76
2022/11/25 04:43:23;;;;;;;65.90;10.60;;;;;;;;;;5015464;28;20302;-76
2022/11/25 04:45:51;;;;;;;67.15;9.70;;;;;;;;;;5015672;28;20210;-76
2022/11/25 04:48:18;;;;;;;69.00;9.73;;;;;;;;;;5015371;28;20318;-76
2022/11/25 04:50:45;;;;;;;66.47;10.45;;;;;;;;;;5014773;28;20674;-76
2022/11/25 04:53:12;;;;;;;68.13;10.77;;;;;;;;;;5015491;28;20702;-76
2022/11/25 04:55:39;;;;;;;66.03;9.85;;;;;;;;;;5015553;28;20301;-77
2022/11/25 04:58:06;;;;;;;65.82;10.07;;;;;;;;;;5015048;28;20301;-77
2022/11/25 05:00:34;;;;;;;66.35;9.80;;;;;;;;;;5014518;28;20747;-76
2022/11/25 05:03:01;;;;;;;71.45;11.05;;;;;;;;;;5015224;28;20214;-76
2022/11/25 05:05:28;;;;;;;69.35;10.93;;;;;;;;;;5015172;28;20299;-76
2022/11/25 05:07:55;;;;;;;66.45;11.02;;;;;;;;;;5015056;28;20301;-76
2022/11/25 05:10:23;;;;;;;67.70;9.80;;;;;;;;;;5014094;28;20254;-76
2022/11/25 05:12:50;;;;;;;65.68;9.95;;;;;;;;;;5015411;28;20243;-76
2022/11/25 05:15:17;;;;;;;71.20;10.20;;;;;;;;;;5015095;28;20227;-76
2022/11/25 05:17:46;;;;;;;65.03;9.50;;;;;;;;;;5015085;28;20213;-76
2022/11/25 05:20:13;;;;;;;66.10;9.10;;;;;;;;;;5014037;28;20261;-76
2022/11/25 05:22:40;;;;;;;67.53;10.35;;;;;;;;;;5014731;28;20628;-76
2022/11/25 05:25:08;;;;;;;67.55;10.40;;;;;;;;;;5015042;28;20636;-76
2022/11/25 05:27:35;;;;;;;65.82;9.80;;;;;;;;;;5014955;28;20203;-76
2022/11/25 05:30:02;;;;;;;69.03;10.65;;;;;;;;;;5014126;28;20313;-76
2022/11/25 05:32:29;;;;;;;68.53;10.50;;;;;;;;;;5014737;28;20258;-76
2022/11/25 05:34:58;;;;;;;65.80;9.73;;;;;;;;;;5014763;28;20298;-76
2022/11/25 05:37:25;;;;;;;64.70;9.45;;;;;;;;;;5014450;28;20238;-76
2022/11/25 05:39:52;;;;;;;66.07;9.85;;;;;;;;;;5013672;28;20310;-76
2022/11/25 05:42:19;;;;;;;65.60;9.40;;;;;;;;;;5014708;28;20234;-76
2022/11/25 05:44:47;;;;;;;68.63;9.60;;;;;;;;;;5014854;28;20294;-76
2022/11/25 05:47:14;;;;;;;71.32;8.35;;;;;;;;;;5014506;28;20239;-76
2022/11/25 05:49:41;;;;;;;69.35;9.98;;;;;;;;;;5013387;28;20281;-76
2022/11/25 05:52:09;;;;;;;67.68;10.50;;;;;;;;;;5013752;28;20708;-76
2022/11/25 05:54:36;;;;;;;65.88;10.38;;;;;;;;;;5014906;28;20313;-77
2022/11/25 05:57:04;;;;;;;66.45;10.07;;;;;;;;;;5014271;28;20211;-77
2022/11/25 05:59:31;;;;;;;69.25;10.00;;;;;;;;;;5013546;28;20337;-77
2022/11/25 06:01:58;;;;;;;68.60;11.02;;;;;;;;;;5014181;28;20231;-77
2022/11/25 06:04:25;;;;;;;66.78;9.85;;;;;;;;;;5014074;28;20649;-77
2022/11/25 06:06:53;;;;;;;66.32;9.93;;;;;;;;;;5014287;28;20207;-77
2022/11/25 06:09:21;;;;;;;66.97;10.45;;;;;;;;;;5013160;28;20238;-77
2022/11/25 06:11:48;;;;;;;66.65;11.18;;;;;;;;;;5013991;28;20256;-77
2022/11/25 06:14:16;;;;;;;65.13;9.30;;;;;;;;;;5014288;28;20207;-77
2022/11/25 06:16:44;;;;;;;69.55;10.75;;;;;;;;;;5013993;28;20214;-77
2022/11/25 06:19:11;;;;;;;67.68;10.13;;;;;;;;;;5012934;28;20320;-77
2022/11/25 06:21:38;;;;;;;68.43;10.48;;;;;;;;;;5013729;28;20242;-77
2022/11/25 06:24:05;;;;;;;67.03;10.57;;;;;;;;;;5013850;28;20254;-77
2022/11/25 06:26:34;;;;;;;66.10;9.98;;;;;;;;;;5013817;28;20298;-78
2022/11/25 06:29:01;;;;;;;66.70;10.70;;;;;;;;;;5012947;28;20262;-77
2022/11/25 06:31:28;;;;;;;66.68;10.45;;;;;;;;;;5013463;28;20233;-77
2022/11/25 06:33:55;;;;;;;66.35;10.20;;;;;;;;;;5013319;28;20207;-77
2022/11/25 06:36:23;;;;;;;67.28;10.48;;;;;;;;;;5013736;28;20250;-77
2022/11/25 06:38:51;;;;;;;66.60;11.02;;;;;;;;;;5012587;28;20310;-77
2022/11/25 06:41:18;;;;;;;67.65;11.45;;;;;;;;;;5013369;28;20622;-77
2022/11/25 06:43:47;;;;;;;65.22;10.38;;;;;;;;;;5013894;28;20207;-77
2022/11/25 06:46:15;;;;;;;72.32;11.10;;;;;;;;;;5013338;28;20243;-77
2022/11/25 06:48:42;;;;;;;67.93;11.43;;;;;;;;;;5012468;28;20321;-77
2022/11/25 06:51:11;;;;;;;68.75;12.13;;;;;;;;;;5013173;28;20707;-77
2022/11/25 06:53:38;;;;;;;66.38;10.63;;;;;;;;;;5013489;28;20297;-77
2022/11/25 06:56:07;;;;;;;67.47;12.10;;;;;;;;;;5013556;28;20269;-76
2022/11/25 06:58:34;;;;;;;70.97;10.93;;;;;;;;;;5012100;28;20242;-75
2022/11/25 07:01:04;;;;;;;70.22;12.23;;;;;;;;;;5013276;28;20242;-76
2022/11/25 07:03:31;;;;;;;72.25;11.88;;;;;;;;;;5013276;28;20238;-75
2022/11/25 07:05:58;;;;;;;70.07;12.30;;;;;;;;;;5013134;28;20325;-75
2022/11/25 07:08:25;;;;;;;68.07;11.95;;;;;;;;;;5013134;28;20234;-76
2022/11/25 07:10:53;;;;;;;72.32;12.20;;;;;;;;;;5012278;28;20293;-76
2022/11/25 07:13:20;;;;;;;69.05;12.23;;;;;;;;;;5012770;28;20430;-76
2022/11/25 07:15:47;;;;;;;69.68;13.52;;;;;;;;;;5013074;28;20203;-76
2022/11/25 07:18:16;;;;;;;72.53;12.20;;;;;;;;;;5012834;28;20207;-76
2022/11/25 07:20:43;;;;;;;71.75;12.95;;;;;;;;;;5012086;28;20778;-77
2022/11/25 07:23:10;;;;;;;71.18;14.27;;;;;;;;;;5012741;28;20207;-76
2022/11/25 07:25:37;;;;;;;73.75;13.88;;;;;;;;;;5012579;28;20318;-76
2022/11/25 07:28:05;;;;;;;70.95;13.23;;;;;;;;;;5012792;28;20502;-76
2022/11/25 07:30:32;;;;;;;70.63;12.77;;;;;;;;;;5012046;28;20239;-76
2022/11/25 07:32:59;;;;;;;73.10;15.00;;;;;;;;;;5012469;28;20266;-77
2022/11/25 07:35:27;;;;;;;72.95;13.40;;;;;;;;;;5012520;28;20293;-77
2022/11/25 07:37:54;;;;;;;75.25;13.93;;;;;;;;;;5012342;28;20211;-76
2022/11/25 07:40:22;;;;;;;71.57;13.38;;;;;;;;;;5012106;28;20214;-76
2022/11/25 07:42:49;;;;;;;71.85;13.43;;;;;;;;;;5012607;28;20294;-76
2022/11/25 07:45:16;;;;;;;76.35;13.75;;;;;;;;;;5011620;28;20314;-77
2022/11/25 07:47:43;;;;;;;74.03;13.02;;;;;;;;;;5012363;28;20211;-76
2022/11/25 07:50:11;;;;;;;71.53;13.02;;;;;;;;;;5011220;28;20322;-76
2022/11/25 07:52:40;;;;;;;71.07;14.40;;;;;;;;;;5012098;28;20230;-76
2022/11/25 07:55:08;;;;;;;69.63;13.70;;;;;;;;;;5012307;28;20211;-77
2022/11/25 07:57:35;;;;;;;72.05;12.63;;;;;;;;;;5012198;28;20696;-77
2022/11/25 08:00:02;;;;;;;69.38;12.57;;;;;;;;;;5011512;28;20229;-77
2022/11/25 08:02:29;;;;;;;69.97;13.20;;;;;;;;;;5012164;28;20321;-76
2022/11/25 08:04:56;;;;;;;68.78;12.00;;;;;;;;;;5012162;28;20739;-77
2022/11/25 08:07:24;;;;;;;74.18;13.45;;;;;;;;;;5011873;28;20213;-76
2022/11/25 08:09:52;;;;;;;68.47;12.52;;;;;;;;;;5011525;28;20266;-76
2022/11/25 08:12:19;;;;;;;72.60;13.68;;;;;;;;;;5011889;28;20317;-76
2022/11/25 08:14:46;;;;;;;67.00;11.70;;;;;;;;;;5012007;28;20254;-77
2022/11/25 08:17:14;;;;;;;70.20;12.55;;;;;;;;;;5011989;28;20243;-77
2022/11/25 08:19:41;;;;;;;69.60;12.65;;;;;;;;;;5011295;28;20227;-76
2022/11/25 08:22:08;;;;;;;72.22;12.93;;;;;;;;;;5011936;28;20294;-76
2022/11/25 08:24:35;;;;;;;72.35;13.18;;;;;;;;;;5012148;28;20235;-76
2022/11/25 08:27:04;;;;;;;74.30;12.15;;;;;;;;;;5012082;28;20250;-76
2022/11/25 08:29:31;;;;;;;72.43;12.45;;;;;;;;;;5011033;28;20231;-76
2022/11/25 08:31:58;;;;;;;71.80;12.13;;;;;;;;;;5011936;28;20352;-76
2022/11/25 08:34:25;;;;;;;65.80;11.40;;;;;;;;;;5011718;28;20203;-76
2022/11/25 08:36:52;;;;;;;69.55;11.23;;;;;;;;;;5011972;28;20231;-76
2022/11/25 08:39:20;;;;;;;72.22;11.68;;;;;;;;;;5011222;28;20314;-77
2022/11/25 08:41:48;;;;;;;67.43;11.40;;;;;;;;;;5011950;28;20231;-77
2022/11/25 08:44:16;;;;;;;69.43;12.40;;;;;;;;;;5011949;28;20694;-77
2022/11/25 08:46:43;;;;;;;68.13;10.80;;;;;;;;;;5011701;28;20305;-77
2022/11/25 08:49:12;;;;;;;68.82;11.00;;;;;;;;;;5010568;28;20267;-77
2022/11/25 08:51:39;;;;;;;76.88;12.00;;;;;;;;;;5011562;28;20252;-77
2022/11/25 08:54:08;;;;;;;72.07;12.60;;;;;;;;;;5011868;28;20297;-77
2022/11/25 08:56:36;;;;;;;68.78;11.82;;;;;;;;;;5013747;28;20312;-77
2022/11/25 08:59:03;;;;;;;67.40;11.85;;;;;;;;;;5014612;28;20366;-77
2022/11/25 09:01:32;;;;;;;65.97;10.25;;;;;;;;;;5015248;28;20241;-77
2022/11/25 09:03:59;;;;;;;68.13;10.93;;;;;;;;;;5015269;28;20253;-77
2022/11/25 09:06:27;;;;;;;72.43;12.02;;;;;;;;;;5015277;28;20293;-77
2022/11/25 09:08:56;;;;;;;67.38;10.70;;;;;;;;;;5014437;28;20238;-77
2022/11/25 09:11:23;;;;;;;74.50;10.93;;;;;;;;;;5015131;28;20210;-77
2022/11/25 09:13:50;;;;;;;67.25;10.23;;;;;;;;;;5014997;28;20231;-77
2022/11/25 09:16:17;;;;;;;72.13;11.02;;;;;;;;;;5015255;28;20301;-77
2022/11/25 09:18:46;;;;;;;68.88;10.40;;;;;;;;;;5014149;28;20229;-77
2022/11/25 09:21:15;;;;;;;67.55;10.48;;;;;;;;;;5015011;28;20648;-77
2022/11/25 09:23:42;;;;;;;70.50;11.02;;;;;;;;;;5014955;28;20240;-77
2022/11/25 09:26:18;;;;;;;66.87;11.20;;;;;;;;;;5014907;28;20209;-77
2022/11/25 09:28:45;;;;;;;71.32;11.50;;;;;;;;;;5014616;28;20574;-77
2022/11/25 09:31:12;;;;;;;67.00;10.93;;;;;;;;;;5015145;28;20216;-77
2022/11/25 09:33:39;;;;;;;67.20;11.30;;;;;;;;;;5014792;28;20235;-77
2022/11/25 09:36:08;;;;;;;67.03;11.13;;;;;;;;;;5014729;28;20203;-77
2022/11/25 09:38:35;;;;;;;73.30;11.53;;;;;;;;;;5013761;28;20477;-77
2022/11/25 09:41:05;;;;;;;70.53;11.10;;;;;;;;;;5014520;28;20458;-77
2022/11/25 09:46:44;;;;;;;70.00;10.00;;;;;;;;;;5014973;28;20425;-77
2022/11/25 09:49:15;;;;;;;68.00;10.70;;;;;;;;;;5013653;28;20568;-77
2022/11/25 09:51:50;;;;;;;69.83;9.87;;;;;;;;;;5014221;28;20545;-77
2022/11/25 09:54:21;;;;;;;65.10;9.23;;;;;;;;;;5014440;28;21009;-77
2022/11/25 09:56:51;;;;;;;65.20;8.80;;;;;;;;;;5014247;28;20541;-77
2022/11/25 09:59:20;;;;;;;67.10;9.57;;;;;;;;;;5013319;28;21049;-77
2022/11/25 10:01:48;;;;;;;72.20;9.60;;;;;;;;;;5014105;28;20896;-77
2022/11/25 10:04:18;;;;;;;71.37;11.60;;;;;;;;;;5014397;28;20540;-78
2022/11/25 10:06:49;;;;;;;69.73;11.07;;;;;;;;;;5014093;28;20461;-77
2022/11/25 10:09:18;;;;;;;66.80;10.13;;;;;;;;;;5012741;28;20470;-77
2022/11/25 10:11:49;;;;;;;67.77;8.73;;;;;;;;;;5013901;28;20532;-77
2022/11/25 10:14:22;;;;;;;64.10;8.70;;;;;;;;;;5014282;28;20446;-77
2022/11/25 10:16:51;;;;;;;65.33;9.13;;;;;;;;;;5014290;28;20770;-77
2022/11/25 10:19:23;;;;;;;65.87;8.97;;;;;;;;;;5013111;28;20480;-77
2022/11/25 10:21:52;;;;;;;65.90;8.33;;;;;;;;;;5014080;28;20481;-77
2022/11/25 10:24:20;;;;;;;68.00;8.77;;;;;;;;;;5013861;28;20481;-77
2022/11/25 10:26:50;;;;;;;67.23;9.53;;;;;;;;;;5013619;28;20500;-77
2022/11/25 10:29:23;;;;;;;63.97;9.03;;;;;;;;;;5013056;28;20521;-77
2022/11/25 10:31:52;;;;;;;64.80;8.27;;;;;;;;;;5013467;28;20481;-77
2022/11/25 10:34:24;;;;;;;66.03;8.93;;;;;;;;;;5013559;28;20442;-77
2022/11/25 10:36:53;;;;;;;65.60;9.43;;;;;;;;;;5013570;28;20544;-77
2022/11/25 10:39:23;;;;;;;64.63;9.13;;;;;;;;;;5012550;28;20504;-77
2022/11/25 10:41:53;;;;;;;66.67;9.67;;;;;;;;;;5013461;28;20494;-77
2022/11/25 10:44:24;;;;;;;65.07;8.40;;;;;;;;;;5013492;28;20881;-77
2022/11/25 10:46:55;;;;;;;67.50;10.00;;;;;;;;;;5013348;28;21103;-77
2022/11/25 10:49:29;;;;;;;69.50;9.43;;;;;;;;;;5012505;28;20486;-77
2022/11/25 10:51:57;;;;;;;67.27;9.67;;;;;;;;;;5012968;28;20883;-77
2022/11/25 10:54:25;;;;;;;66.60;9.83;;;;;;;;;;5031681;28;20454;-77
2022/11/25 10:56:55;;;;;;;65.87;9.40;;;;;;;;;;5032912;28;20491;-77
2022/11/25 10:59:24;;;;;;;67.80;9.70;;;;;;;;;;5032341;28;20477;-77
2022/11/25 11:01:52;;;;;;;65.87;9.40;;;;;;;;;;5032833;28;20560;-77
2022/11/25 11:04:19;;;;;;;69.43;10.10;;;;;;;;;;5032640;28;20452;-77
2022/11/25 11:06:47;;;;;;;65.90;10.30;;;;;;;;;;5032897;28;20459;-77
2022/11/25 11:09:31;;;;;;;68.17;10.80;;;;;;;;;;5031912;28;20497;-77
2022/11/25 11:12:08;;;;;;;65.00;9.67;;;;;;;;;;5033414;28;20810;-77
2022/11/25 11:14:35;;;;;;;66.37;9.00;;;;;;;;;;5033283;28;20440;-77
2022/11/25 11:17:02;;;;;;;63.57;9.20;;;;;;;;;;5033270;28;20481;-77
2022/11/25 11:19:30;;;;;;;72.40;12.37;;;;;;;;;;5032884;28;20548;-77
2022/11/25 11:21:58;;;;;;;69.73;10.80;;;;;;;;;;5033747;28;20455;-77
2022/11/25 11:24:36;;;;;;;67.80;10.03;;;;;;;;;;5033153;28;20469;-77
2022/11/25 11:27:15;;;;;;;65.40;9.13;;;;;;;;;;5033437;28;20821;-77
2022/11/25 11:29:42;;;;;;;67.93;10.27;;;;;;;;;;5032329;28;21031;-77
2022/11/25 11:32:20;;;;;;;71.33;10.73;;;;;;;;;;5032728;28;20480;-75
2022/11/25 11:34:55;;;;;;;71.20;12.13;;;;;;;;;;5032586;28;20476;-75
2022/11/25 11:37:29;;;;;;;63.70;9.00;;;;;;;;;;5032263;28;20457;-75
2022/11/25 11:40:02;;;;;;;69.73;10.60;;;;;;;;;;5031437;28;20988;-76
2022/11/25 11:42:33;;;;;;;65.63;9.10;;;;;;;;;;5032284;28;20445;-76
2022/11/25 11:45:04;;;;;;;66.50;8.00;;;;;;;;;;5032252;28;20489;-76
2022/11/25 11:47:37;;;;;;;66.40;9.60;;;;;;;;;;5032516;28;20528;-76
2022/11/25 11:50:23;;;;;;;69.83;9.73;;;;;;;;;;5031236;28;20508;-76
2022/11/25 11:52:55;;;;;;;71.17;11.67;;;;;;;;;;5032959;28;20512;-77
2022/11/25 11:55:43;;;;;;;69.07;10.80;;;;;;;;;;5032876;28;21024;-77
2022/11/25 11:58:19;;;;;;;76.73;15.80;;;;;;;;;;5029374;28;20465;-77
2022/11/25 12:00:51;;;;;;;67.33;9.50;;;;;;;;;;5031919;28;20822;-77
2022/11/25 12:03:21;;;;;;;65.80;8.20;;;;;;;;;;5032749;28;20451;-77
2022/11/25 12:05:54;;;;;;;77.30;20.57;;;;;;;;;;5032938;28;20539;-77
2022/11/25 12:08:26;;;;;;;69.17;9.87;;;;;;;;;;5032495;28;20465;-77
2022/11/25 12:10:55;;;;;;;67.27;9.67;;;;;;;;;;5032324;28;20505;-77
2022/11/25 12:13:27;;;;;;;67.93;9.40;;;;;;;;;;5032486;28;20488;-77
2022/11/25 12:15:56;;;;;;;68.00;8.97;;;;;;;;;;5033043;28;20535;-77
2022/11/25 12:18:35;;;;;;;68.30;9.67;;;;;;;;;;5032781;28;20556;-77
2022/11/25 12:21:04;;;;;;;66.43;9.77;;;;;;;;;;5033183;28;20452;-78
2022/11/25 12:23:39;;;;;;;67.77;8.63;;;;;;;;;;5032491;28;20441;-78
2022/11/25 12:26:09;;;;;;;66.33;9.40;;;;;;;;;;5033207;28;20484;-78
2022/11/25 12:28:40;;;;;;;67.80;11.00;;;;;;;;;;5032343;28;21051;-78
2022/11/25 12:31:12;;;;;;;65.17;9.67;;;;;;;;;;5034510;28;20798;-78
2022/11/25 12:33:44;;;;;;;65.97;8.57;;;;;;;;;;5036859;28;20485;-77
2022/11/25 12:36:13;;;;;;;66.37;9.20;;;;;;;;;;5036994;28;20815;-77
2022/11/25 12:38:46;;;;;;;65.70;8.80;;;;;;;;;;5036509;28;20507;-78
2022/11/25 12:41:18;;;;;;;75.20;10.63;;;;;;;;;;5037526;28;20488;-77
2022/11/25 12:43:50;;;;;;;65.30;9.30;;;;;;;;;;5037272;28;21040;-77
2022/11/25 12:46:21;;;;;;;67.80;9.50;;;;;;;;;;5038577;28;20480;-77
2022/11/25 12:48:49;;;;;;;64.47;8.83;;;;;;;;;;5037497;28;20539;-78
2022/11/25 12:51:20;;;;;;;68.77;9.73;;;;;;;;;;5038269;28;20535;-78
2022/11/25 12:53:54;;;;;;;68.17;8.93;;;;;;;;;;5037972;28;20491;-78
2022/11/25 12:56:25;;;;;;;71.00;9.20;;;;;;;;;;5038604;28;20484;-77
2022/11/25 12:59:01;;;;;;;69.87;8.77;;;;;;;;;;5038428;28;20500;-78
2022/11/25 13:01:49;;;;;;;70.70;10.10;;;;;;;;;;5038907;28;20539;-78
2022/11/25 13:04:35;;;;;;;67.53;9.17;;;;;;;;;;5038489;28;20472;-78
2022/11/25 13:07:19;;;;;;;66.90;9.50;;;;;;;;;;5038094;28;20524;-78
2022/11/25 13:09:52;;;;;;;64.90;8.80;;;;;;;;;;5036493;28;20522;-78
2022/11/25 13:12:24;;;;;;;66.40;8.37;;;;;;;;;;5037710;28;21044;-78
2022/11/25 13:15:06;;;;;;;75.07;12.20;;;;;;;;;;5038243;28;20481;-77
2022/11/25 13:17:36;;;;;;;69.27;11.97;;;;;;;;;;5022708;28;20473;-78
2022/11/25 13:20:22;;;;;;;68.50;11.57;;;;;;;;;;5020626;28;20500;-78
2022/11/25 13:23:01;;;;;;;69.23;10.07;;;;;;;;;;5018527;28;20478;-78
2022/11/25 13:25:29;;;;;;;65.57;9.87;;;;;;;;;;5021316;28;20524;-78
2022/11/25 13:27:57;;;;;;;70.60;11.50;;;;;;;;;;5022630;28;20450;-78
2022/11/25 13:30:36;;;;;;;70.80;12.47;;;;;;;;;;5020894;28;20950;-78
2022/11/25 13:33:31;;;;;;;67.20;12.90;;;;;;;;;;5023286;28;20517;-78
2022/11/25 13:35:59;;;;;;;68.10;11.23;;;;;;;;;;5022888;28;20541;-78
2022/11/25 13:38:47;;;;;;;70.60;11.00;;;;;;;;;;5023554;28;20501;-78
2022/11/25 13:41:34;;;;;;;65.30;9.63;;;;;;;;;;5023612;28;20457;-78
2022/11/25 13:44:05;;;;;;;67.83;10.10;;;;;;;;;;5022931;28;20442;-78
2022/11/25 13:46:37;;;;;;;68.47;10.23;;;;;;;;;;5022254;28;20471;-78
2022/11/25 13:49:06;;;;;;;73.07;11.07;;;;;;;;;;5021518;28;20485;-79
2022/11/25 13:51:34;;;;;;;68.40;10.03;;;;;;;;;;5022781;28;20469;-78
2022/11/25 13:54:02;;;;;;;66.60;9.43;;;;;;;;;;5022550;28;20525;-78
2022/11/25 13:56:30;;;;;;;67.83;10.17;;;;;;;;;;5022085;28;20507;-78
2022/11/25 13:59:16;;;;;;;67.30;10.67;;;;;;;;;;5021404;28;20560;-78
2022/11/25 14:01:53;;;;;;;71.50;9.10;;;;;;;;;;5021773;28;20481;-78
2022/11/25 14:04:24;;;;;;;64.67;9.20;;;;;;;;;;5018270;28;20450;-77
2022/11/25 14:07:02;;;;;;;64.63;8.70;;;;;;;;;;5014107;28;20540;-77
2022/11/25 14:09:35;;;;;;;68.53;10.17;;;;;;;;;;5013282;28;20508;-78
2022/11/25 14:12:08;;;;;;;68.40;10.40;;;;;;;;;;5014116;28;20493;-78
2022/11/25 14:14:50;;;;;;;69.97;10.03;;;;;;;;;;5014122;28;20521;-78
2022/11/25 14:17:38;;;;;;;65.83;8.87;;;;;;;;;;5011843;28;20524;-78
2022/11/25 14:20:20;;;;;;;63.07;8.37;;;;;;;;;;4988241;28;21006;-78
2022/11/25 14:23:06;;;;;;;66.73;8.93;;;;;;;;;;5014046;28;21018;-78
2022/11/25 14:25:42;;;;;;;66.03;9.30;;;;;;;;;;5014099;28;20473;-78
2022/11/25 14:28:15;;;;;;;67.40;7.83;;;;;;;;;;5013782;28;20634;-78
2022/11/25 14:30:44;;;;;;;66.70;8.23;;;;;;;;;;5013755;28;20485;-78
2022/11/25 14:33:15;;;;;;;66.33;8.70;;;;;;;;;;5014255;28;20497;-78
2022/11/25 14:35:47;;;;;;;66.43;8.27;;;;;;;;;;5013885;28;20533;-78
2022/11/25 14:38:16;;;;;;;64.17;8.87;;;;;;;;;;5013517;28;20532;-78
2022/11/25 14:40:45;;;;;;;68.30;8.60;;;;;;;;;;5012904;28;20533;-78
2022/11/25 14:43:14;;;;;;;64.17;9.07;;;;;;;;;;5013723;28;20477;-78
2022/11/25 14:45:41;;;;;;;65.63;9.53;;;;;;;;;;5013578;28;20458;-77